createdAt,value
2023-05-19T00:06:03.467Z,57.40
2023-05-19T00:16:14.805Z,55.98
2023-05-19T00:26:37.701Z,54.57
2023-05-19T00:36:42.940Z,55.93
2023-05-19T00:46:52.806Z,57.86
2023-05-19T00:57:11.987Z,55.27
2023-05-19T01:07:23.641Z,50.60
2023-05-19T01:17:54.261Z,54.04
2023-05-19T01:28:43.291Z,50.40
2023-05-19T01:38:51.778Z,51.29
2023-05-19T01:48:56.464Z,56.62
2023-05-19T01:59:10.094Z,56.09
2023-05-19T02:09:24.079Z,54.14
2023-05-19T02:19:31.451Z,51.54
2023-05-19T02:29:34.819Z,48.09
2023-05-19T02:39:39.905Z,37.98
2023-05-19T02:49:44.908Z,40.05
2023-05-19T02:59:49.720Z,42.25
2023-05-19T03:09:56.541Z,38.72
2023-05-19T03:20:01.807Z,36.92
2023-05-19T03:30:06.816Z,36.51
2023-05-19T03:40:12.542Z,38.15
2023-05-19T03:50:19.582Z,32.53
2023-05-19T04:00:25.420Z,29.76
2023-05-19T04:10:28.413Z,33.58
2023-05-19T04:20:35.309Z,34.47
2023-05-19T04:30:39.944Z,31.41
2023-05-19T04:40:44.778Z,29.47
2023-05-19T04:50:49.191Z,28.43
2023-05-19T05:00:56.164Z,27.79
2023-05-19T05:10:59.686Z,27.57
2023-05-19T05:21:05.031Z,27.74
2023-05-19T05:31:08.256Z,30.02
2023-05-19T05:41:12.960Z,28.99
2023-05-19T05:51:16.536Z,29.75
2023-05-19T06:01:22.218Z,29.95
2023-05-19T06:11:25.380Z,34.85
2023-05-19T06:21:29.855Z,37.38
2023-05-19T06:31:33.976Z,39.67
2023-05-19T06:41:38.473Z,41.76
2023-05-19T06:51:41.614Z,40.93
2023-05-19T07:01:46.164Z,42.76
2023-05-19T07:11:52.488Z,43.50
2023-05-19T07:21:57.486Z,43.23
2023-05-19T07:32:03.317Z,43.90
2023-05-19T07:42:13.272Z,43.09
2023-05-19T07:52:16.056Z,40.45
2023-05-19T08:02:20.786Z,41.31
2023-05-19T08:12:23.728Z,44.53
2023-05-19T08:22:30.625Z,46.94
2023-05-19T08:32:33.659Z,48.15
2023-05-19T08:42:42.084Z,48.38
2023-05-19T08:52:53.000Z,48.15
2023-05-19T09:03:06.045Z,48.48
2023-05-19T09:13:20.334Z,49.45
2023-05-19T09:23:31.455Z,50.23
2023-05-19T09:33:35.757Z,49.52
2023-05-19T09:43:40.470Z,49.85
2023-05-19T09:53:46.702Z,45.91
2023-05-19T10:03:55.774Z,45.32
2023-05-19T10:13:59.451Z,45.53
2023-05-19T10:24:05.790Z,43.95
2023-05-19T10:34:24.078Z,44.74
2023-05-19T10:44:35.885Z,43.87
2023-05-19T10:54:43.788Z,42.71
2023-05-19T11:04:58.902Z,45.11
2023-05-19T11:15:04.102Z,45.36
2023-05-19T11:25:14.659Z,45.29
2023-05-19T11:35:26.701Z,45.92
2023-05-19T11:45:34.797Z,47.49
2023-05-19T11:55:43.795Z,48.87
2023-05-19T12:05:53.683Z,51.91
2023-05-19T12:16:00.795Z,55.74
2023-05-19T12:26:06.420Z,56.90
2023-05-19T12:36:13.840Z,59.27
2023-05-19T12:46:19.829Z,60.35
2023-05-19T12:56:29.484Z,60.83
2023-05-19T13:06:36.825Z,62.17
2023-05-19T13:16:47.036Z,64.00
2023-05-19T13:26:56.174Z,62.98
2023-05-19T13:36:59.401Z,62.63
2023-05-19T13:47:04.098Z,63.24
2023-05-19T13:57:07.679Z,63.32
2023-05-19T14:07:16.117Z,62.92
2023-05-19T14:17:21.588Z,61.83
2023-05-19T14:27:26.024Z,64.04
2023-05-19T14:37:32.300Z,65.50
2023-05-19T14:47:37.494Z,66.04
2023-05-19T14:57:40.464Z,68.18
2023-05-19T15:07:45.025Z,68.73
2023-05-19T15:17:48.277Z,69.74
2023-05-19T15:28:00.754Z,71.36
2023-05-19T15:38:06.547Z,72.25
2023-05-19T15:48:13.878Z,72.32
2023-05-19T15:58:21.792Z,73.09
2023-05-19T16:08:26.275Z,73.79
2023-05-19T16:18:32.274Z,74.09
2023-05-19T16:28:39.747Z,74.73
2023-05-19T16:38:43.285Z,75.55
2023-05-19T16:48:49.021Z,76.29
2023-05-19T16:58:53.170Z,77.61
2023-05-19T17:08:59.330Z,78.79
2023-05-19T17:19:02.406Z,80.26
2023-05-19T17:29:06.906Z,81.97
2023-05-19T17:39:10.150Z,82.78
2023-05-19T17:49:16.390Z,83.44
2023-05-19T17:59:20.181Z,83.45
2023-05-19T18:09:28.867Z,84.20
2023-05-19T18:19:32.716Z,84.51
2023-05-19T18:29:37.375Z,85.12
2023-05-19T18:39:40.473Z,85.51
2023-05-19T18:49:44.971Z,84.63
2023-05-19T18:59:48.008Z,85.08
2023-05-19T19:09:55.635Z,83.54
2023-05-19T19:19:59.058Z,84.74
2023-05-19T19:30:09.448Z,83.89
2023-05-19T19:40:13.352Z,84.64
2023-05-19T19:50:22.031Z,87.69
2023-05-19T20:00:24.974Z,85.85
2023-05-19T20:10:29.564Z,85.75
2023-05-19T20:20:32.864Z,85.95
2023-05-19T20:30:37.812Z,85.01
2023-05-19T20:40:41.054Z,84.75
2023-05-19T20:50:46.190Z,84.49
2023-05-19T21:00:54.392Z,85.12
2023-05-19T21:11:00.707Z,86.21
2023-05-19T21:21:04.827Z,85.07
2023-05-19T21:31:09.591Z,85.95
2023-05-19T21:41:13.777Z,84.98
2023-05-19T21:51:18.373Z,87.12
2023-05-19T22:01:22.533Z,85.73
2023-05-19T22:11:27.499Z,85.06
2023-05-19T22:21:31.480Z,84.33
2023-05-19T22:31:36.572Z,85.22
2023-05-19T22:41:40.700Z,84.52
2023-05-19T22:51:45.184Z,84.61
2023-05-19T23:01:48.372Z,85.86
2023-05-19T23:11:54.083Z,85.83
2023-05-19T23:21:57.257Z,84.92
2023-05-19T23:32:02.099Z,85.36
2023-05-19T23:42:06.408Z,86.11
2023-05-19T23:52:11.132Z,85.53
